Time;durP1;ratioP1;P1;durP2;ratioP2;P2;SDS_P1;SDS_P2;PMS_P1;PMS_P2;Temp;Humidity;BMP_temperature;BMP_pressure;BME280_temperature;BME280_humidity;BME280_pressure;Samples;Min_cycle;Max_cycle;Signal;HPM_P1;HPM_P2
2022/02/12 00:01:47;;;;;;;24.43;11.53;;;;;;;-2.96;100.00;97798.81;5030055;28;20033;-74
2022/02/12 00:04:12;;;;;;;22.63;11.80;;;;;;;-2.97;100.00;97792.00;5048198;28;20525;-75
2022/02/12 00:06:38;;;;;;;23.10;12.13;;;;;;;-2.93;100.00;97787.63;5038088;28;20076;-74
2022/02/12 00:09:04;;;;;;;18.70;11.67;;;;;;;-2.97;100.00;97780.84;5048127;28;20048;-74
2022/02/12 00:11:29;;;;;;;20.03;11.33;;;;;;;-3.00;100.00;97784.34;5016988;28;20032;-74
2022/02/12 00:13:55;;;;;;;23.13;11.10;;;;;;;-3.05;100.00;97777.63;5033668;28;20040;-74
2022/02/12 00:16:21;;;;;;;20.97;11.40;;;;;;;-2.98;100.00;97787.75;5037259;28;20036;-74
2022/02/12 00:18:47;;;;;;;23.23;11.50;;;;;;;-3.01;100.00;97785.25;5028919;28;20033;-74
2022/02/12 00:21:12;;;;;;;29.57;13.07;;;;;;;-3.10;100.00;97781.16;5044752;28;20032;-74
2022/02/12 00:23:38;;;;;;;20.47;12.17;;;;;;;-3.13;100.00;97782.97;5036186;28;20042;-74
2022/02/12 00:26:03;;;;;;;27.13;12.50;;;;;;;-3.08;100.00;97779.41;5020765;28;20034;-74
2022/02/12 00:28:29;;;;;;;23.87;11.77;;;;;;;-3.06;100.00;97781.06;5070038;28;20029;-74
2022/02/12 00:30:55;;;;;;;26.60;12.03;;;;;;;-3.06;100.00;97781.91;5041990;28;20040;-73
2022/02/12 00:33:20;;;;;;;24.17;11.20;;;;;;;-3.08;100.00;97770.84;5036014;28;20021;-74
2022/02/12 00:35:46;;;;;;;22.20;11.80;;;;;;;-3.08;100.00;97775.97;5039917;28;20047;-74
2022/02/12 00:38:12;;;;;;;23.67;10.57;;;;;;;-3.10;100.00;97770.03;5019103;28;20064;-74
2022/02/12 00:40:37;;;;;;;20.83;11.20;;;;;;;-3.12;100.00;97771.78;5037551;28;20033;-74
2022/02/12 00:43:03;;;;;;;19.80;10.67;;;;;;;-3.12;100.00;97772.66;5036367;28;20398;-74
2022/02/12 00:45:29;;;;;;;24.83;11.13;;;;;;;-3.13;100.00;97765.78;5037561;28;20037;-74
2022/02/12 00:47:55;;;;;;;22.70;9.97;;;;;;;-3.10;100.00;97764.88;5034969;28;20478;-74
2022/02/12 00:50:21;;;;;;;20.13;9.30;;;;;;;-3.13;100.00;97760.63;5028039;28;20083;-74
2022/02/12 00:52:46;;;;;;;22.73;9.80;;;;;;;-3.09;100.00;97761.41;5037714;28;20565;-74
2022/02/12 00:55:12;;;;;;;18.37;10.20;;;;;;;-3.14;100.00;97760.69;5047376;28;20041;-74
2022/02/12 00:57:38;;;;;;;30.33;11.93;;;;;;;-3.15;100.00;97757.28;5039763;28;20033;-74
2022/02/12 01:00:05;;;;;;;24.33;10.07;;;;;;;-3.15;100.00;97749.56;5036315;28;20026;-74
2022/02/12 01:02:31;;;;;;;29.57;12.37;;;;;;;-3.17;100.00;97738.44;5036748;28;20431;-75
2022/02/12 01:04:57;;;;;;;19.53;10.07;;;;;;;-3.21;100.00;97754.84;5024131;28;21052;-74
2022/02/12 01:07:23;;;;;;;21.73;8.90;;;;;;;-3.23;100.00;97746.31;5012282;28;20476;-74
2022/02/12 01:09:49;;;;;;;22.00;9.40;;;;;;;-3.21;100.00;97746.28;5035689;28;20525;-74
2022/02/12 01:12:15;;;;;;;18.10;9.13;;;;;;;-3.21;100.00;97747.13;5024519;28;20119;-73
2022/02/12 01:14:40;;;;;;;17.77;9.10;;;;;;;-3.21;100.00;97739.41;5017754;28;20064;-74
2022/02/12 01:17:06;;;;;;;24.73;9.17;;;;;;;-3.17;100.00;97737.59;5035366;28;20021;-74
2022/02/12 01:19:32;;;;;;;19.33;9.77;;;;;;;-3.21;100.00;97736.84;5028866;28;20037;-74
2022/02/12 01:21:57;;;;;;;24.07;11.63;;;;;;;-3.25;100.00;97730.09;5038556;28;20025;-75
2022/02/12 01:24:23;;;;;;;29.20;12.53;;;;;;;-3.32;100.00;97734.53;5024048;28;20036;-74
2022/02/12 01:26:51;;;;;;;19.47;10.97;;;;;;;-3.33;100.00;97727.69;5040014;28;20033;-74
2022/02/12 01:29:17;;;;;;;19.27;8.93;;;;;;;-3.36;100.00;97724.34;5042305;28;20079;-73
2022/02/12 01:31:43;;;;;;;22.63;9.30;;;;;;;-3.43;100.00;97720.22;5019417;28;21065;-73
2022/02/12 01:34:09;;;;;;;18.37;8.30;;;;;;;-3.44;100.00;97713.41;5032730;28;20092;-75
2022/02/12 01:36:35;;;;;;;23.47;10.60;;;;;;;-3.46;100.00;97715.16;5048608;28;20593;-74
2022/02/12 01:39:00;;;;;;;28.33;13.43;;;;;;;-3.47;100.00;97713.47;5038858;28;20050;-74
2022/02/12 01:41:26;;;;;;;20.03;10.30;;;;;;;-3.49;100.00;97715.22;5033239;28;20860;-74
2022/02/12 01:43:52;;;;;;;23.07;10.30;;;;;;;-3.50;100.00;97716.97;5038734;28;20059;-74
2022/02/12 01:46:17;;;;;;;23.27;9.73;;;;;;;-3.51;100.00;97706.72;5034736;28;20068;-74
2022/02/12 01:48:44;;;;;;;21.40;11.27;;;;;;;-3.50;100.00;97713.56;5044298;28;20037;-74
2022/02/12 01:51:10;;;;;;;27.27;11.00;;;;;;;-3.56;100.00;97711.97;5040186;28;20524;-74
2022/02/12 01:53:37;;;;;;;22.70;10.40;;;;;;;-3.57;100.00;97723.97;5038538;28;20458;-73
2022/02/12 01:56:03;;;;;;;24.20;11.10;;;;;;;-3.56;100.00;97717.09;5054498;28;21224;-74
2022/02/12 01:58:29;;;;;;;17.50;7.63;;;;;;;-3.54;100.00;97711.94;5039139;28;20479;-74
2022/02/12 02:00:55;;;;;;;16.87;8.57;;;;;;;-3.60;100.00;97718.91;5025400;28;20503;-73
2022/02/12 02:03:20;;;;;;;17.17;8.67;;;;;;;-3.76;100.00;97712.41;5032221;28;20086;-74
2022/02/12 02:05:46;;;;;;;20.73;8.37;;;;;;;-3.70;100.00;97709.72;5042431;28;20044;-74
2022/02/12 02:08:12;;;;;;;24.13;8.97;;;;;;;-3.71;100.00;97704.63;5029458;28;20119;-74
2022/02/12 02:10:37;;;;;;;19.47;10.10;;;;;;;-3.70;100.00;97707.16;5047700;28;20130;-73
2022/02/12 02:13:03;;;;;;;22.23;11.00;;;;;;;-3.71;100.00;97700.31;5032202;28;20029;-74
2022/02/12 02:15:29;;;;;;;24.87;11.20;;;;;;;-3.73;100.00;97711.50;5038890;28;20067;-74
2022/02/12 02:17:57;;;;;;;29.23;14.23;;;;;;;-3.75;100.00;97706.44;5031095;28;20072;-74
2022/02/12 02:20:23;;;;;;;25.03;12.17;;;;;;;-3.71;100.00;97700.31;5039046;28;20444;-73
2022/02/12 02:22:49;;;;;;;23.67;10.10;;;;;;;-3.80;100.00;97703.09;5048062;28;21238;-74
2022/02/12 02:25:15;;;;;;;22.53;9.37;;;;;;;-3.81;100.00;97699.69;5044117;28;20498;-73
2022/02/12 02:27:41;;;;;;;17.13;8.93;;;;;;;-3.83;100.00;97701.44;5044485;28;20882;-74
2022/02/12 02:30:20;;;;;;;24.27;10.43;;;;;;;-3.84;100.00;97709.19;5033377;28;20059;-73
2022/02/12 02:32:46;;;;;;;25.30;10.07;;;;;;;-3.73;100.00;97707.22;5048571;28;20455;-73
2022/02/12 02:35:16;;;;;;;22.17;9.17;;;;;;;-3.70;100.00;97709.72;5043774;28;20481;-73
2022/02/12 02:37:46;;;;;;;24.77;9.23;;;;;;;-3.85;100.00;97710.94;5033316;28;20834;-74
2022/02/12 02:40:17;;;;;;;20.07;10.10;;;;;;;-3.79;100.00;97712.50;5025171;28;20033;-73
2022/02/12 02:42:44;;;;;;;20.80;9.80;;;;;;;-3.87;100.00;97711.84;5039654;28;20929;-73
2022/02/12 02:45:11;;;;;;;24.57;10.70;;;;;;;-3.91;100.00;97705.91;5043718;28;20486;-73
2022/02/12 02:47:41;;;;;;;19.93;9.93;;;;;;;-3.96;100.00;97709.47;5037081;28;20495;-73
2022/02/12 02:56:00;;;;;;;23.00;9.50;;;;;;;-3.91;100.00;97692.22;5039110;28;20075;-73
2022/02/12 02:58:47;;;;;;;22.37;9.70;;;;;;;-3.92;100.00;97698.25;5030109;28;20470;-73
2022/02/12 03:01:17;;;;;;;18.17;8.90;;;;;;;-3.87;100.00;97691.28;5019856;28;20455;-73
2022/02/12 03:03:47;;;;;;;17.80;9.57;;;;;;;-3.85;100.00;97686.97;5017708;28;20975;-73
2022/02/12 03:06:15;;;;;;;19.37;9.53;;;;;;;-3.83;100.00;97680.88;5050477;28;20876;-72
2022/02/12 03:08:41;;;;;;;22.37;9.97;;;;;;;-3.82;100.00;97676.59;5041462;28;20467;-73
2022/02/12 03:11:08;;;;;;;19.10;10.33;;;;;;;-3.87;100.00;97683.56;5045451;28;20463;-73
2022/02/12 03:13:35;;;;;;;22.63;12.20;;;;;;;-3.90;100.00;97674.19;5020371;28;21050;-73
2022/02/12 03:16:00;;;;;;;23.60;9.63;;;;;;;-3.91;100.00;97674.25;5041880;28;20976;-72
2022/02/12 03:18:27;;;;;;;22.97;9.40;;;;;;;-3.98;100.00;97665.00;5050784;28;20458;-72
2022/02/12 03:20:53;;;;;;;19.53;10.30;;;;;;;-4.01;100.00;97667.63;5036910;28;20136;-72
2022/02/12 03:23:18;;;;;;;22.90;9.60;;;;;;;-4.07;100.00;97666.03;5065278;28;20623;-72
2022/02/12 03:25:44;;;;;;;22.50;9.77;;;;;;;-4.11;100.00;97664.41;5014576;28;20732;-73
2022/02/12 03:28:12;;;;;;;24.53;11.07;;;;;;;-4.07;100.00;97668.59;5042386;28;20029;-72
2022/02/12 03:30:40;;;;;;;19.80;9.27;;;;;;;-4.13;100.00;97672.13;5023734;28;20575;-72
2022/02/12 03:33:07;;;;;;;21.90;9.80;;;;;;;-4.13;100.00;97661.88;5031431;28;20452;-72
2022/02/12 03:35:35;;;;;;;22.47;10.13;;;;;;;-4.10;100.00;97664.38;5027794;28;20503;-72
2022/02/12 03:38:07;;;;;;;23.03;10.27;;;;;;;-4.09;100.00;97662.63;5019496;28;20974;-72
2022/02/12 03:40:41;;;;;;;23.87;10.13;;;;;;;-4.13;100.00;97655.88;5026050;28;20463;-72
2022/02/12 03:43:07;;;;;;;21.80;10.37;;;;;;;-4.11;100.00;97660.13;5027687;28;20459;-72
2022/02/12 03:45:34;;;;;;;29.33;10.23;;;;;;;-4.11;100.00;97657.53;5027192;28;20472;-73
2022/02/12 03:48:00;;;;;;;24.33;10.23;;;;;;;-4.15;100.00;97658.50;5073267;28;20467;-72
2022/02/12 03:50:27;;;;;;;23.37;9.20;;;;;;;-4.19;100.00;97651.75;5026386;28;20562;-73
2022/02/12 03:52:54;;;;;;;25.20;9.17;;;;;;;-4.15;100.00;97658.50;5029449;28;20444;-72
2022/02/12 03:55:20;;;;;;;22.47;9.80;;;;;;;-4.20;100.00;97656.91;5018051;28;20474;-73
2022/02/12 03:57:47;;;;;;;20.73;9.33;;;;;;;-4.20;100.00;97657.75;5040862;28;20432;-72
2022/02/12 04:00:15;;;;;;;21.73;10.13;;;;;;;-4.20;100.00;97650.03;5040803;28;20464;-72
2022/02/12 04:02:41;;;;;;;21.60;9.83;;;;;;;-4.20;100.00;97651.78;5036032;28;20452;-72
2022/02/12 04:05:10;;;;;;;22.40;8.90;;;;;;;-4.23;100.00;97655.25;5036663;28;20574;-73
2022/02/12 04:07:40;;;;;;;18.17;8.30;;;;;;;-4.27;100.00;97654.47;5045216;28;20493;-73
2022/02/12 04:10:11;;;;;;;29.67;10.07;;;;;;;-4.30;100.00;97657.09;5028544;28;20472;-73
2022/02/12 04:12:37;;;;;;;23.80;9.43;;;;;;;-4.30;100.00;97653.69;5022767;28;20452;-73
2022/02/12 04:15:03;;;;;;;18.87;8.80;;;;;;;-4.29;100.00;97648.53;5056126;28;20484;-72
2022/02/12 04:17:34;;;;;;;25.07;10.37;;;;;;;-4.25;100.00;97651.88;5031257;28;20440;-73
2022/02/12 04:20:02;;;;;;;18.50;7.97;;;;;;;-4.18;100.00;97645.72;5036106;28;20447;-72
2022/02/12 04:22:30;;;;;;;24.27;9.27;;;;;;;-4.21;100.00;97645.78;5035820;28;20447;-73
2022/02/12 04:24:56;;;;;;;19.63;8.83;;;;;;;-4.24;100.00;97638.16;5032316;28;20472;-73
2022/02/12 04:27:21;;;;;;;23.03;9.47;;;;;;;-4.23;100.00;97639.84;5037228;28;21094;-72
2022/02/12 04:29:48;;;;;;;20.17;8.77;;;;;;;-4.29;100.00;97634.84;5034784;28;20410;-72
2022/02/12 04:32:14;;;;;;;20.77;8.63;;;;;;;-4.29;100.00;97628.00;5042232;28;20523;-73
2022/02/12 04:34:40;;;;;;;17.63;7.67;;;;;;;-4.34;100.00;97626.41;5021485;28;20052;-72
2022/02/12 04:37:05;;;;;;;21.53;8.40;;;;;;;-4.36;100.00;97625.56;5034942;28;20487;-72
2022/02/12 04:39:31;;;;;;;14.13;7.80;;;;;;;-4.35;100.00;97629.84;5034861;28;20029;-72
2022/02/12 04:41:57;;;;;;;20.57;8.73;;;;;;;-4.36;100.00;97620.44;5046481;28;20294;-73
2022/02/12 04:44:22;;;;;;;22.83;8.20;;;;;;;-4.38;100.00;97619.66;5036556;28;20063;-72
2022/02/12 04:46:48;;;;;;;16.87;9.23;;;;;;;-4.41;100.00;97620.56;5031068;28;20045;-72
2022/02/12 04:49:14;;;;;;;21.17;8.87;;;;;;;-4.40;100.00;97617.09;5029322;28;20024;-72
2022/02/12 04:51:39;;;;;;;16.97;7.60;;;;;;;-4.40;100.00;97616.25;5036800;28;20032;-72
2022/02/12 04:54:07;;;;;;;19.50;7.70;;;;;;;-4.36;100.00;97612.72;5026422;28;20028;-72
2022/02/12 04:56:33;;;;;;;22.93;9.13;;;;;;;-4.37;100.00;97611.91;5037654;28;20800;-72
2022/02/12 04:58:59;;;;;;;17.80;8.23;;;;;;;-4.40;100.00;97611.97;5036800;28;20067;-72
2022/02/12 05:01:25;;;;;;;21.80;9.30;;;;;;;-4.36;100.00;97608.47;5044129;28;20993;-72
2022/02/12 05:03:52;;;;;;;18.70;8.30;;;;;;;-4.36;100.00;97612.72;5031957;28;20721;-72
2022/02/12 05:06:19;;;;;;;20.20;9.03;;;;;;;-4.37;100.00;97611.06;5035124;28;20043;-72
2022/02/12 05:08:44;;;;;;;18.57;8.00;;;;;;;-4.37;100.00;97601.63;5026066;28;20483;-73
2022/02/12 05:11:11;;;;;;;21.23;8.50;;;;;;;-4.36;100.00;97600.75;5036621;28;20452;-72
2022/02/12 05:13:37;;;;;;;20.60;8.07;;;;;;;-4.41;100.00;97600.00;5019361;28;20048;-73
2022/02/12 05:16:04;;;;;;;20.27;8.50;;;;;;;-4.40;100.00;97588.00;5025093;28;20462;-72
2022/02/12 05:18:30;;;;;;;18.67;8.07;;;;;;;-4.46;100.00;97589.00;5026541;28;21039;-73
2022/02/12 05:20:56;;;;;;;26.50;8.63;;;;;;;-4.47;100.00;97584.72;5036742;28;20456;-72
2022/02/12 05:23:23;;;;;;;18.30;8.07;;;;;;;-4.54;100.00;97584.03;5037213;28;20036;-72
2022/02/12 05:25:48;;;;;;;15.87;7.77;;;;;;;-4.52;100.00;97586.56;5028727;28;20469;-72
2022/02/12 05:28:14;;;;;;;17.47;7.63;;;;;;;-4.51;100.00;97586.53;5039556;28;20543;-72
2022/02/12 05:30:41;;;;;;;25.10;9.30;;;;;;;-4.51;100.00;97583.97;5041053;28;20772;-72
2022/02/12 05:33:07;;;;;;;18.60;8.70;;;;;;;-4.43;100.00;97577.81;5017340;28;20920;-72
2022/02/12 05:35:33;;;;;;;19.57;8.13;;;;;;;-4.47;100.00;97574.47;5039275;28;20506;-72
2022/02/12 05:37:59;;;;;;;17.20;7.53;;;;;;;-4.50;100.00;97577.94;5043181;28;20487;-72
2022/02/12 05:40:24;;;;;;;23.07;8.93;;;;;;;-4.44;100.00;97579.53;5030756;28;20116;-73
2022/02/12 05:42:51;;;;;;;22.37;10.50;;;;;;;-4.39;100.00;97566.56;5019996;28;20041;-72
2022/02/12 05:45:16;;;;;;;18.83;8.13;;;;;;;-4.31;100.00;97562.97;5010268;28;20068;-72
2022/02/12 05:47:42;;;;;;;20.97;9.40;;;;;;;-4.28;100.00;97570.59;5038809;28;20472;-73
2022/02/12 05:50:09;;;;;;;24.03;8.60;;;;;;;-4.14;100.00;97561.72;5035611;28;20025;-72
2022/02/12 05:52:36;;;;;;;18.87;8.43;;;;;;;-4.19;100.00;97566.97;5032263;28;20034;-72
2022/02/12 05:55:02;;;;;;;19.33;7.50;;;;;;;-4.20;100.00;97570.41;5066825;28;20547;-73
2022/02/12 05:57:28;;;;;;;18.43;7.40;;;;;;;-4.08;100.00;97567.56;5017716;28;20464;-73
2022/02/12 05:59:54;;;;;;;16.67;7.60;;;;;;;-4.12;100.00;97562.53;5068885;28;20463;-72
2022/02/12 06:02:19;;;;;;;16.13;7.10;;;;;;;-4.09;100.00;97563.31;5015224;28;20029;-73
2022/02/12 06:04:45;;;;;;;16.40;8.63;;;;;;;-4.17;100.00;97554.94;5030707;28;20057;-73
2022/02/12 06:07:11;;;;;;;18.93;8.07;;;;;;;-4.11;100.00;97553.94;5041512;28;20037;-73
2022/02/12 06:09:37;;;;;;;22.00;7.70;;;;;;;-4.10;100.00;97555.63;5037048;28;20037;-73
2022/02/12 06:12:05;;;;;;;18.87;7.80;;;;;;;-4.11;100.00;97541.09;5042037;28;20022;-73
2022/02/12 06:14:31;;;;;;;16.13;6.57;;;;;;;-4.07;100.00;97538.41;5045497;28;21098;-73
2022/02/12 06:16:58;;;;;;;15.33;7.23;;;;;;;-4.06;100.00;97541.81;5030663;28;20514;-73
2022/02/12 06:19:24;;;;;;;16.83;8.43;;;;;;;-4.10;100.00;97541.06;5010220;28;20475;-73
2022/02/12 06:21:50;;;;;;;15.83;7.80;;;;;;;-4.16;100.00;97541.19;5070389;28;20491;-72
2022/02/12 06:24:16;;;;;;;14.67;6.60;;;;;;;-4.22;100.00;97543.94;5024105;28;20471;-72
2022/02/12 06:26:46;;;;;;;16.37;7.13;;;;;;;-4.23;100.00;97533.69;5044584;28;20470;-73
2022/02/12 06:29:16;;;;;;;15.07;7.27;;;;;;;-4.24;100.00;97537.97;5036159;28;20028;-73
2022/02/12 06:31:41;;;;;;;16.27;6.50;;;;;;;-4.27;100.00;97536.31;5037691;28;20449;-73
2022/02/12 06:34:07;;;;;;;18.90;6.40;;;;;;;-4.29;100.00;97539.84;5014429;28;20498;-73
2022/02/12 06:36:33;;;;;;;25.03;11.90;;;;;;;-4.27;100.00;97543.19;5044686;28;20078;-72
2022/02/12 06:38:58;;;;;;;17.73;8.47;;;;;;;-4.22;100.00;97540.53;5045019;28;20102;-73
2022/02/12 06:41:24;;;;;;;15.47;6.20;;;;;;;-4.25;100.00;97536.31;5038299;28;20064;-72
2022/02/12 06:43:50;;;;;;;17.93;7.57;;;;;;;-4.21;100.00;97535.34;5022450;28;20405;-72
2022/02/12 06:46:16;;;;;;;17.07;8.47;;;;;;;-4.21;100.00;97537.91;5036502;28;20397;-72
2022/02/12 06:48:41;;;;;;;19.43;9.73;;;;;;;-4.19;100.00;97533.59;5036514;28;20071;-72
2022/02/12 06:51:07;;;;;;;14.00;7.47;;;;;;;-4.08;100.00;97530.75;5033673;28;20036;-72
2022/02/12 06:53:33;;;;;;;18.67;8.47;;;;;;;-4.01;100.00;97531.44;5043186;28;20119;-72
2022/02/12 06:56:00;;;;;;;18.17;6.67;;;;;;;-3.97;100.00;97525.34;5030379;28;20471;-72
2022/02/12 06:58:26;;;;;;;20.77;8.97;;;;;;;-3.93;100.00;97529.50;5038484;28;20033;-72
2022/02/12 07:00:52;;;;;;;16.93;7.93;;;;;;;-3.84;100.00;97532.69;5038307;28;20464;-73
2022/02/12 07:03:17;;;;;;;17.47;8.03;;;;;;;-3.71;100.00;97525.53;5039135;28;20029;-72
2022/02/12 07:05:43;;;;;;;20.90;7.53;;;;;;;-3.61;100.00;97529.53;5029442;28;20636;-72
2022/02/12 07:08:09;;;;;;;21.07;7.93;;;;;;;-3.41;100.00;97533.31;5018412;28;20394;-72
2022/02/12 07:10:36;;;;;;;15.70;7.80;;;;;;;-3.24;100.00;97531.09;5039630;28;20490;-72
2022/02/12 07:13:03;;;;;;;16.60;7.83;;;;;;;-3.07;100.00;97528.03;5015529;28;20040;-72
2022/02/12 07:15:29;;;;;;;20.03;8.23;;;;;;;-2.96;100.00;97532.88;5030614;28;20888;-73
2022/02/12 07:17:55;;;;;;;17.07;8.30;;;;;;;-2.76;100.00;97534.88;5034490;28;20435;-72
2022/02/12 07:20:21;;;;;;;19.43;8.10;;;;;;;-2.59;100.00;97540.34;5011454;28;20473;-72
2022/02/12 07:22:47;;;;;;;15.67;8.20;;;;;;;-2.30;100.00;97536.88;5027696;28;20048;-72
2022/02/12 07:25:13;;;;;;;20.60;8.33;;;;;;;-2.10;100.00;97532.84;5022611;28;20025;-73
2022/02/12 07:27:40;;;;;;;20.10;8.47;;;;;;;-1.79;100.00;97535.22;5030110;28;20499;-73
2022/02/12 07:30:13;;;;;;;16.03;8.33;;;;;;;-1.57;100.00;97517.31;5038700;28;20491;-73
2022/02/12 07:32:40;;;;;;;16.45;7.45;;;;;;;-1.27;100.00;97516.22;5065418;28;21070;-72
2022/02/12 07:35:11;;;;;;;16.97;8.30;;;;;;;-0.92;100.00;97516.66;5033387;28;20021;-72
2022/02/12 07:37:45;;;;;;;15.37;8.20;;;;;;;-0.98;100.00;97516.88;5015495;28;20827;-72
2022/02/12 07:40:13;;;;;;;16.70;7.17;;;;;;;-0.57;100.00;97524.78;5003874;28;20542;-73
2022/02/12 07:42:38;;;;;;;13.67;6.10;;;;;;;-0.27;100.00;97508.09;5049602;28;21177;-73
2022/02/12 07:45:05;;;;;;;17.37;8.07;;;;;;;0.18;100.00;97506.28;5040074;28;20459;-73
2022/02/12 07:47:31;;;;;;;16.70;8.03;;;;;;;0.06;100.00;97512.78;5040354;28;20091;-72
2022/02/12 07:49:57;;;;;;;15.33;8.70;;;;;;;0.08;100.00;97513.56;5035514;28;20999;-72
2022/02/12 07:52:23;;;;;;;16.90;7.67;;;;;;;0.18;100.00;97514.88;5029932;28;20022;-73
2022/02/12 07:54:49;;;;;;;18.20;6.80;;;;;;;0.52;100.00;97507.44;5031833;28;20487;-73
2022/02/12 07:57:15;;;;;;;18.03;6.40;;;;;;;1.53;100.00;97506.28;5038376;28;20025;-73
2022/02/12 07:59:40;;;;;;;12.73;6.37;;;;;;;1.68;100.00;97503.88;5010884;28;20096;-74
2022/02/12 08:02:07;;;;;;;13.10;6.13;;;;;;;0.83;100.00;97512.09;5030398;28;20538;-74
2022/02/12 08:04:33;;;;;;;13.80;6.43;;;;;;;1.67;100.00;97507.41;5034282;28;20054;-74
2022/02/12 08:09:43;;;;;;;13.07;6.53;;;;;;;1.31;100.00;97514.25;5049946;28;20435;-73
2022/02/12 08:12:15;;;;;;;20.40;7.37;;;;;;;1.02;100.00;97512.97;5048697;28;20451;-73
2022/02/12 08:14:46;;;;;;;11.97;6.70;;;;;;;2.10;100.00;97509.59;5033088;28;20506;-74
2022/02/12 08:17:15;;;;;;;13.23;7.17;;;;;;;2.56;99.37;97509.88;5032760;28;20938;-73
2022/02/12 08:19:41;;;;;;;15.23;7.33;;;;;;;3.51;97.75;97499.63;5017985;28;20481;-74
2022/02/12 08:22:07;;;;;;;18.37;9.53;;;;;;;3.34;90.63;97502.31;5040376;28;20055;-75
2022/02/12 08:24:34;;;;;;;18.77;10.23;;;;;;;4.12;87.66;97508.34;5044553;28;20064;-76
2022/02/12 08:27:01;;;;;;;32.90;18.30;;;;;;;4.12;86.63;97510.09;5032178;28;20478;-77
2022/02/12 08:29:28;;;;;;;27.93;17.23;;;;;;;4.41;89.75;97509.25;5024702;28;20033;-76
2022/02/12 08:32:01;;;;;;;25.47;14.33;;;;;;;3.70;89.38;97514.22;5014482;28;20026;-78
2022/02/12 08:34:28;;;;;;;23.57;13.77;;;;;;;4.29;88.16;97506.53;5059842;28;20029;-79
2022/02/12 08:36:55;;;;;;;13.57;7.43;;;;;;;4.08;85.36;97512.06;5046014;28;20938;-77
2022/02/12 08:39:22;;;;;;;15.37;7.20;;;;;;;3.61;87.89;97514.72;5008818;28;20025;-78
2022/02/12 08:41:48;;;;;;;15.10;7.03;;;;;;;3.76;89.45;97508.69;5035234;28;20091;-77
2022/02/12 08:44:15;;;;;;;13.33;5.80;;;;;;;3.72;91.53;97512.34;5041600;28;20101;-76
2022/02/12 08:46:43;;;;;;;16.03;6.80;;;;;;;3.65;91.95;97511.03;5026958;28;20441;-76
2022/02/12 08:49:10;;;;;;;14.37;6.60;;;;;;;4.51;85.35;97506.97;5032203;28;20025;-77
2022/02/12 08:51:37;;;;;;;12.40;6.93;;;;;;;4.94;84.07;97510.44;5019826;28;20511;-76
2022/02/12 08:54:07;;;;;;;14.57;6.93;;;;;;;5.55;81.58;97502.38;5034003;28;20076;-77
2022/02/12 08:56:35;;;;;;;12.37;6.13;;;;;;;4.78;82.26;97499.25;5050270;28;20371;-77
2022/02/12 08:59:00;;;;;;;12.30;5.87;;;;;;;4.27;82.83;97501.44;5038038;28;20595;-75
2022/02/12 09:01:28;;;;;;;10.57;6.67;;;;;;;4.27;85.89;97495.38;5052665;28;20029;-77
2022/02/12 09:03:54;;;;;;;12.50;6.17;;;;;;;3.72;88.09;97497.63;5029367;28;20116;-77
2022/02/12 09:06:19;;;;;;;16.67;7.57;;;;;;;4.08;87.87;97490.41;5024456;28;20049;-78
2022/02/12 09:08:51;;;;;;;15.53;6.77;;;;;;;4.45;86.28;97484.72;5032671;28;20076;-78
2022/02/12 09:11:21;;;;;;;13.77;6.30;;;;;;;4.00;87.23;97483.88;5041085;28;20119;-76
2022/02/12 09:13:48;;;;;;;12.37;6.20;;;;;;;5.05;84.03;97485.50;5036936;28;20036;-77
2022/02/12 09:16:14;;;;;;;13.93;5.97;;;;;;;4.92;86.27;97475.81;5020372;28;20144;-78
2022/02/12 09:18:40;;;;;;;14.50;6.27;;;;;;;6.06;80.56;97469.47;5023249;28;20069;-76
2022/02/12 09:21:06;;;;;;;14.87;5.97;;;;;;;5.41;79.31;97477.97;5010911;28;20459;-76
2022/02/12 09:23:31;;;;;;;13.67;5.63;;;;;;;4.95;86.73;97465.19;5028375;28;20041;-77
2022/02/12 09:25:57;;;;;;;14.20;6.00;;;;;;;5.33;81.75;97464.59;5031380;28;20091;-76
2022/02/12 09:28:23;;;;;;;12.77;6.17;;;;;;;5.03;83.18;97463.88;5031485;28;20554;-77
2022/02/12 09:30:48;;;;;;;15.40;6.70;;;;;;;5.19;82.01;97467.22;5072479;28;20032;-78
2022/02/12 09:33:14;;;;;;;15.77;7.30;;;;;;;4.11;84.68;97454.59;5002983;28;20126;-77
2022/02/12 09:35:40;;;;;;;15.70;7.77;;;;;;;6.08;81.91;97441.50;5013334;28;20068;-80
2022/02/12 09:38:06;;;;;;;17.10;7.87;;;;;;;6.08;79.61;97445.88;5025743;28;20071;-79
2022/02/12 09:40:33;;;;;;;14.57;7.07;;;;;;;4.65;88.05;97446.22;5032001;28;20376;-78
2022/02/12 09:43:04;;;;;;;16.87;6.87;;;;;;;4.88;86.38;97442.22;5067505;28;20037;-80
2022/02/12 09:45:42;;;;;;;13.30;6.27;;;;;;;6.34;78.94;97439.75;5054857;28;20052;-80
2022/02/12 09:48:10;;;;;;;14.93;6.60;;;;;;;5.70;79.49;97457.03;5042299;28;20025;-80
2022/02/12 09:50:37;;;;;;;13.20;5.00;;;;;;;6.16;71.84;97443.59;5043616;28;20029;-80
2022/02/12 09:53:03;;;;;;;13.47;4.50;;;;;;;5.97;71.91;97445.75;5028098;28;20029;-78
2022/02/12 09:55:31;;;;;;;9.40;4.67;;;;;;;5.44;75.09;97451.72;5043550;28;20424;-79
2022/02/12 09:57:58;;;;;;;11.53;4.80;;;;;;;5.64;73.92;97447.00;5032859;28;20036;-78
2022/02/12 10:00:28;;;;;;;13.23;4.23;;;;;;;5.34;73.32;97452.38;5019495;28;20037;-78
2022/02/12 10:02:54;;;;;;;12.43;4.50;;;;;;;5.32;73.98;97446.44;5022800;28;20029;-79
2022/02/12 10:05:28;;;;;;;12.23;4.23;;;;;;;5.81;70.35;97449.34;5025536;28;20064;-79
2022/02/12 10:08:02;;;;;;;13.60;4.67;;;;;;;5.05;72.93;97449.00;5057970;28;20033;-79
2022/02/12 10:10:29;;;;;;;12.47;5.83;;;;;;;5.01;74.09;97442.28;5062163;28;20063;-77
2022/02/12 10:13:23;;;;;;;13.33;4.33;;;;;;;4.44;75.86;97433.56;5026443;28;20040;-78
2022/02/12 10:15:54;;;;;;;10.47;4.90;;;;;;;4.71;73.86;97435.44;5054920;28;20048;-79
2022/02/12 10:18:21;;;;;;;11.77;4.23;;;;;;;4.35;76.27;97436.69;5054359;28;20398;-79
2022/02/12 10:20:49;;;;;;;16.47;4.27;;;;;;;4.79;73.88;97438.38;5022796;28;20026;-79
2022/02/12 10:23:18;;;;;;;17.60;5.30;;;;;;;5.43;69.94;97431.78;5022447;28;20059;-80
2022/02/12 10:25:46;;;;;;;14.83;4.30;;;;;;;5.59;70.46;97434.22;5042658;28;20037;-79
2022/02/12 10:28:14;;;;;;;15.53;5.83;;;;;;;6.16;70.80;97427.09;5041525;28;20117;-80
2022/02/12 10:30:43;;;;;;;13.40;6.53;;;;;;;7.33;69.16;97423.31;5021496;28;20041;-78
2022/02/12 10:33:10;;;;;;;13.73;5.93;;;;;;;6.44;70.73;97419.06;5067121;28;20043;-78
2022/02/12 10:35:37;;;;;;;14.57;7.00;;;;;;;6.54;72.15;97414.06;5013524;28;20056;-77
2022/02/12 10:38:08;;;;;;;14.00;5.60;;;;;;;6.75;68.80;97409.13;5014486;28;20025;-78
2022/02/12 10:40:35;;;;;;;14.43;7.20;;;;;;;6.72;71.92;97402.31;5020765;28;20038;-78
2022/02/12 10:43:01;;;;;;;14.43;6.10;;;;;;;7.39;68.33;97399.31;5019972;28;20124;-79
2022/02/12 10:45:29;;;;;;;12.47;5.43;;;;;;;7.38;69.64;97397.66;5013543;28;20110;-77
2022/02/12 10:47:57;;;;;;;13.43;5.27;;;;;;;7.14;67.16;97395.00;5030328;28;20026;-78
2022/02/12 10:50:26;;;;;;;16.27;6.27;;;;;;;6.54;67.91;97385.31;5073942;28;20037;-79
2022/02/12 10:52:56;;;;;;;12.73;4.90;;;;;;;7.19;66.70;97374.59;5033508;28;20028;-78
2022/02/12 10:55:37;;;;;;;13.73;5.13;;;;;;;7.06;63.45;97376.41;5041307;28;20037;-78
2022/02/12 10:58:08;;;;;;;11.87;4.17;;;;;;;6.27;67.99;97373.19;5020466;28;20026;-78
2022/02/12 11:00:36;;;;;;;12.67;5.23;;;;;;;7.24;66.65;97359.41;5025357;28;20034;-78
2022/02/12 11:03:05;;;;;;;10.83;5.13;;;;;;;7.20;65.15;97352.72;5009219;28;20030;-77
2022/02/12 11:05:35;;;;;;;9.90;4.90;;;;;;;7.72;63.40;97338.44;5005744;28;20100;-78
2022/02/12 11:08:08;;;;;;;13.17;6.07;;;;;;;8.09;62.42;97332.22;5036800;28;20033;-79
2022/02/12 11:10:36;;;;;;;6.95;3.60;;;;;;;7.66;61.52;97338.88;5043227;28;20732;-76
2022/02/12 11:13:06;;;;;;;11.90;4.40;;;;;;;7.51;61.91;97329.53;5031094;28;20555;-78
2022/02/12 11:15:33;;;;;;;11.63;3.73;;;;;;;6.99;60.52;97328.94;5035943;28;20041;-79
2022/02/12 11:18:01;;;;;;;9.43;4.13;;;;;;;7.14;61.14;97327.00;5037521;28;20025;-77
2022/02/12 11:20:29;;;;;;;11.43;4.23;;;;;;;7.83;60.68;97321.06;5014996;28;20072;-78
2022/02/12 11:23:24;;;;;;;10.87;4.63;;;;;;;7.86;58.75;97313.81;5032454;28;20029;-76
2022/02/12 11:25:51;;;;;;;10.00;4.77;;;;;;;7.94;59.36;97323.72;5022580;28;20133;-78
2022/02/12 11:28:18;;;;;;;8.93;4.80;;;;;;;7.06;60.55;97311.84;5020319;28;20655;-78